createdAt,value
2018-05-10T00:00:02.560Z,57.24
2018-05-10T00:01:09.784Z,57.24
2018-05-10T00:02:16.637Z,57.25
2018-05-10T00:03:23.436Z,57.29
2018-05-10T00:04:30.255Z,57.30
2018-05-10T00:05:37.441Z,57.31
2018-05-10T00:06:43.880Z,57.29
2018-05-10T00:07:50.826Z,57.21
2018-05-10T00:08:57.563Z,57.20
2018-05-10T00:10:04.377Z,57.23
2018-05-10T00:11:11.173Z,57.22
2018-05-10T00:12:17.968Z,57.23
2018-05-10T00:13:24.779Z,57.25
2018-05-10T00:14:31.643Z,57.27
2018-05-10T00:16:51.249Z,57.24
2018-05-10T00:20:13.686Z,57.26
2018-05-10T00:22:28.061Z,57.35
2018-05-10T00:23:36.322Z,57.37
2018-05-10T00:24:41.612Z,57.44
2018-05-10T00:25:48.395Z,57.46
2018-05-10T00:26:58.649Z,57.49
2018-05-10T00:28:28.272Z,57.53
2018-05-10T00:29:31.528Z,57.50
2018-05-10T00:30:38.255Z,57.54
2018-05-10T00:31:45.197Z,57.55
2018-05-10T00:35:17.952Z,57.69
2018-05-10T00:41:22.303Z,57.75
2018-05-10T00:42:29.078Z,57.96
2018-05-10T00:43:35.954Z,57.99
2018-05-10T00:44:42.540Z,58.05
2018-05-10T00:45:49.423Z,58.08
2018-05-10T00:46:56.468Z,58.03
2018-05-10T00:48:03.031Z,58.04
2018-05-10T00:49:09.840Z,58.11
2018-05-10T00:50:16.772Z,58.17
2018-05-10T00:51:23.704Z,58.16
2018-05-10T00:52:30.804Z,58.20
2018-05-10T00:53:37.195Z,58.19
2018-05-10T00:54:43.971Z,58.17
2018-05-10T00:55:51.068Z,58.16
2018-05-10T00:56:57.962Z,58.14
2018-05-10T00:58:04.776Z,58.16
2018-05-10T00:59:11.776Z,58.18
2018-05-10T01:00:18.595Z,58.26
2018-05-10T01:01:25.432Z,58.26
2018-05-10T01:02:32.368Z,58.21
2018-05-10T01:03:39.265Z,58.30
2018-05-10T01:04:46.238Z,58.36
2018-05-10T01:05:53.030Z,58.33
2018-05-10T01:06:59.905Z,58.40
2018-05-10T01:08:06.659Z,58.40
2018-05-10T01:09:14.341Z,58.40
2018-05-10T01:10:20.132Z,58.39
2018-05-10T01:11:26.887Z,58.39
2018-05-10T01:12:33.625Z,58.37
2018-05-10T01:13:40.382Z,58.40
2018-05-10T01:14:47.122Z,58.43
2018-05-10T01:15:54.358Z,58.43
2018-05-10T01:17:00.875Z,58.40
2018-05-10T01:18:07.762Z,58.42
2018-05-10T01:19:14.644Z,58.45
2018-05-10T01:20:21.475Z,58.43
2018-05-10T01:21:28.218Z,58.48
2018-05-10T01:22:34.980Z,58.48
2018-05-10T01:23:42.156Z,58.51
2018-05-10T01:24:48.598Z,58.52
2018-05-10T01:25:55.311Z,58.47
2018-05-10T01:27:01.913Z,58.53
2018-05-10T01:28:08.960Z,58.63
2018-05-10T01:29:16.216Z,58.63
2018-05-10T01:30:28.456Z,58.65
2018-05-10T01:32:36.952Z,58.67
2018-05-10T01:37:04.049Z,58.65
2018-05-10T01:38:10.939Z,58.69
2018-05-10T01:39:18.009Z,58.90
2018-05-10T01:40:25.135Z,58.93
2018-05-10T01:41:32.184Z,58.94
2018-05-10T01:42:39.166Z,58.95
2018-05-10T01:43:45.972Z,58.97
2018-05-10T01:44:52.679Z,59.01
2018-05-10T01:45:59.860Z,58.80
2018-05-10T01:47:06.484Z,59.09
2018-05-10T01:48:13.432Z,59.10
2018-05-10T01:49:20.352Z,59.16
2018-05-10T01:50:27.440Z,59.18
2018-05-10T01:51:34.441Z,59.19
2018-05-10T01:52:41.262Z,59.24
2018-05-10T01:53:48.172Z,59.28
2018-05-10T01:54:55.086Z,59.27
2018-05-10T01:56:01.790Z,59.27
2018-05-10T01:57:09.072Z,59.25
2018-05-10T01:58:15.859Z,59.38
2018-05-10T01:59:27.553Z,59.42
2018-05-10T02:00:29.970Z,59.48
2018-05-10T02:02:43.695Z,59.50
2018-05-10T02:03:53.245Z,59.45
2018-05-10T02:04:57.376Z,59.52
2018-05-10T02:06:04.248Z,59.55
2018-05-10T02:07:11.088Z,59.61
2018-05-10T02:08:17.879Z,59.65
2018-05-10T02:09:24.640Z,59.73
2018-05-10T02:10:31.420Z,59.79
2018-05-10T02:11:38.275Z,59.79
2018-05-10T02:12:45.092Z,59.80
2018-05-10T02:13:52.165Z,59.94
2018-05-10T02:14:58.840Z,59.95
2018-05-10T02:16:06.813Z,59.99
2018-05-10T02:17:12.834Z,60.01
2018-05-10T02:18:19.575Z,60.14
2018-05-10T02:19:26.350Z,60.16
2018-05-10T02:20:33.105Z,60.27
2018-05-10T02:21:39.887Z,60.34
2018-05-10T02:22:46.650Z,60.34
2018-05-10T02:23:53.846Z,60.43
2018-05-10T02:25:00.483Z,60.54
2018-05-10T02:26:07.476Z,60.54
2018-05-10T02:27:14.269Z,60.65
2018-05-10T02:28:21.169Z,60.67
2018-05-10T02:29:27.944Z,60.76
2018-05-10T02:30:34.671Z,60.83
2018-05-10T02:31:41.408Z,60.87
2018-05-10T02:32:49.169Z,60.90
2018-05-10T02:33:55.139Z,60.98
2018-05-10T02:35:57.403Z,61.00
2018-05-10T02:37:02.924Z,61.06
2018-05-10T02:38:25.346Z,61.13
2018-05-10T02:39:26.311Z,61.15
2018-05-10T02:40:33.173Z,61.16
2018-05-10T02:41:40.004Z,61.21
2018-05-10T02:42:47.192Z,61.27
2018-05-10T02:55:01.756Z,61.35
2018-05-10T02:56:40.835Z,61.80
2018-05-10T03:02:12.492Z,61.99
2018-05-10T03:03:46.263Z,62.24
2018-05-10T03:04:59.117Z,62.27
2018-05-10T03:07:51.635Z,62.35
2018-05-10T03:08:58.611Z,62.47
2018-05-10T03:10:05.973Z,62.52
2018-05-10T03:11:12.582Z,62.55
2018-05-10T03:12:19.240Z,62.59
2018-05-10T03:13:33.063Z,62.65
2018-05-10T03:14:33.370Z,62.71
2018-05-10T03:15:39.696Z,62.73
2018-05-10T03:16:50.268Z,62.78
2018-05-10T03:17:53.450Z,62.83
2018-05-10T03:19:00.029Z,62.89
2018-05-10T03:20:07.069Z,62.96
2018-05-10T03:21:13.865Z,63.09
2018-05-10T03:22:20.709Z,63.07
2018-05-10T03:27:25.760Z,63.24
2018-05-10T03:28:32.691Z,63.59
2018-05-10T03:29:39.444Z,63.62
2018-05-10T03:30:46.172Z,63.72
2018-05-10T03:31:52.862Z,63.80
2018-05-10T03:32:59.628Z,63.86
2018-05-10T03:34:06.348Z,63.89
2018-05-10T03:35:13.120Z,63.95
2018-05-10T03:36:19.850Z,63.97
2018-05-10T03:37:27.668Z,64.03
2018-05-10T03:38:33.498Z,64.04
2018-05-10T03:39:40.242Z,64.11
2018-05-10T03:40:47.000Z,64.19
2018-05-10T03:41:53.910Z,64.26
2018-05-10T03:43:00.630Z,64.33
2018-05-10T03:44:07.643Z,64.39
2018-05-10T03:45:14.376Z,64.44
2018-05-10T03:46:21.239Z,64.48
2018-05-10T03:48:34.950Z,64.52
2018-05-10T03:49:41.907Z,64.52
2018-05-10T03:50:48.744Z,64.66
2018-05-10T03:51:55.491Z,64.69
2018-05-10T03:53:02.311Z,64.73
2018-05-10T03:54:09.082Z,64.81
2018-05-10T03:55:15.814Z,64.85
2018-05-10T03:56:22.639Z,64.84
2018-05-10T03:57:29.350Z,64.93
2018-05-10T03:58:36.112Z,64.95
2018-05-10T03:59:42.855Z,64.95
2018-05-10T04:00:49.595Z,65.02
2018-05-10T04:01:56.328Z,65.07
2018-05-10T04:03:03.072Z,65.06
2018-05-10T04:04:09.939Z,65.14
2018-05-10T04:05:16.768Z,65.18
2018-05-10T04:06:23.567Z,65.22
2018-05-10T04:07:33.554Z,65.30
2018-05-10T04:09:59.240Z,65.36
2018-05-10T04:11:11.604Z,65.43
2018-05-10T04:12:06.651Z,65.43
2018-05-10T04:13:13.391Z,65.44
2018-05-10T04:14:20.179Z,65.53
2018-05-10T04:15:27.038Z,65.52
2018-05-10T04:16:33.783Z,65.57
2018-05-10T04:17:40.650Z,65.60
2018-05-10T04:18:47.412Z,65.71
2018-05-10T04:19:54.624Z,65.76
2018-05-10T04:22:08.642Z,65.80
2018-05-10T04:23:15.359Z,65.79
2018-05-10T04:24:22.157Z,65.80
2018-05-10T04:25:29.088Z,65.82
2018-05-10T04:26:35.977Z,65.94
2018-05-10T04:27:42.751Z,66.00
2018-05-10T04:28:49.579Z,66.00
2018-05-10T04:29:56.534Z,65.94
2018-05-10T04:31:03.325Z,65.94
2018-05-10T04:32:19.319Z,65.96
2018-05-10T04:33:16.847Z,65.99
2018-05-10T04:34:23.623Z,65.98
2018-05-10T04:35:30.398Z,65.94
2018-05-10T04:36:37.175Z,66.01
2018-05-10T04:37:46.769Z,66.12
2018-05-10T04:39:05.298Z,66.12
2018-05-10T04:41:05.219Z,66.03
2018-05-10T04:42:12.348Z,65.98
2018-05-10T04:44:25.887Z,65.97
2018-05-10T04:46:39.820Z,65.90
2018-05-10T04:47:46.728Z,65.92
2018-05-10T04:48:53.601Z,65.96
2018-05-10T04:50:00.432Z,65.99
2018-05-10T04:51:07.313Z,66.07
2018-05-10T04:52:14.143Z,66.16
2018-05-10T04:53:21.157Z,66.26
2018-05-10T04:54:27.939Z,66.32
2018-05-10T04:55:34.748Z,66.38
2018-05-10T04:56:41.513Z,66.48
2018-05-10T04:57:48.431Z,66.53
2018-05-10T04:58:55.247Z,66.65
2018-05-10T05:00:02.073Z,66.67
2018-05-10T05:01:08.899Z,66.70
2018-05-10T05:02:15.713Z,66.74
2018-05-10T05:03:22.567Z,66.78
2018-05-10T05:04:29.299Z,66.77
2018-05-10T05:05:36.159Z,66.84
2018-05-10T05:06:42.952Z,66.90
2018-05-10T05:07:49.793Z,66.90
2018-05-10T05:08:56.628Z,66.98
2018-05-10T05:10:03.379Z,67.03
2018-05-10T05:11:10.193Z,66.96
2018-05-10T05:12:17.150Z,66.93
2018-05-10T05:13:23.944Z,66.90
2018-05-10T05:14:30.742Z,66.82
2018-05-10T05:15:38.539Z,66.77
2018-05-10T05:16:44.351Z,66.72
2018-05-10T05:17:51.144Z,66.42
2018-05-10T05:18:57.922Z,66.39
2018-05-10T05:20:04.805Z,66.42
2018-05-10T05:21:11.834Z,66.43
2018-05-10T05:22:18.651Z,66.33
2018-05-10T05:23:25.580Z,66.29
2018-05-10T05:24:32.340Z,66.28
2018-05-10T05:25:39.195Z,66.35
2018-05-10T05:26:45.934Z,66.32
2018-05-10T05:27:52.744Z,66.29
2018-05-10T05:29:00.448Z,66.32
2018-05-10T05:30:06.310Z,66.36
2018-05-10T05:31:13.086Z,66.33
2018-05-10T05:32:19.863Z,66.22
2018-05-10T05:33:26.636Z,66.21
2018-05-10T05:34:33.339Z,66.20
2018-05-10T05:35:40.196Z,66.22
2018-05-10T05:36:46.924Z,66.29
2018-05-10T05:37:53.807Z,66.32
2018-05-10T05:39:00.687Z,66.20
2018-05-10T05:40:08.030Z,66.17
2018-05-10T05:41:14.646Z,66.13
2018-05-10T05:42:21.321Z,66.11
2018-05-10T05:43:28.193Z,66.09
2018-05-10T05:44:34.976Z,66.12
2018-05-10T05:45:41.717Z,66.11
2018-05-10T05:46:48.523Z,66.14
2018-05-10T05:47:55.288Z,66.13
2018-05-10T05:49:02.094Z,66.22
2018-05-10T05:50:08.862Z,66.22
2018-05-10T05:51:15.632Z,66.20
2018-05-10T05:52:22.363Z,66.20
2018-05-10T05:53:29.212Z,66.24
2018-05-10T05:54:35.964Z,66.26
2018-05-10T05:55:42.699Z,66.29
2018-05-10T05:56:49.429Z,66.25
2018-05-10T05:57:56.216Z,66.31
2018-05-10T05:59:02.975Z,66.44
2018-05-10T06:00:09.711Z,66.49
2018-05-10T06:01:16.444Z,66.54
2018-05-10T06:02:23.195Z,66.75
2018-05-10T06:03:29.939Z,66.66
2018-05-10T06:04:36.670Z,66.71
2018-05-10T06:05:43.418Z,66.78
2018-05-10T06:06:50.172Z,66.74
2018-05-10T06:07:56.956Z,66.68
2018-05-10T06:09:03.757Z,66.71
2018-05-10T06:10:10.640Z,66.74
2018-05-10T06:11:17.424Z,66.76
2018-05-10T06:12:24.171Z,66.78
2018-05-10T06:13:30.974Z,66.76
2018-05-10T06:14:37.837Z,66.72
2018-05-10T06:15:44.676Z,66.64
2018-05-10T06:16:51.383Z,66.63
2018-05-10T06:17:58.157Z,66.58
2018-05-10T06:19:04.948Z,66.58
2018-05-10T06:20:11.720Z,66.67
2018-05-10T06:21:18.470Z,66.70
2018-05-10T06:22:25.211Z,66.77
2018-05-10T06:23:32.008Z,66.74
2018-05-10T06:24:38.795Z,66.71
2018-05-10T06:25:45.563Z,66.67
2018-05-10T06:26:52.304Z,66.59
2018-05-10T06:27:59.087Z,66.66
2018-05-10T06:29:05.875Z,66.65
2018-05-10T06:30:12.607Z,66.70
2018-05-10T06:31:19.386Z,66.76
2018-05-10T06:32:26.141Z,66.79
2018-05-10T06:33:32.907Z,66.78
2018-05-10T06:34:39.708Z,66.79
2018-05-10T06:35:46.480Z,66.80
2018-05-10T06:36:53.277Z,66.69
2018-05-10T06:38:00.124Z,66.70
2018-05-10T06:39:06.922Z,66.70
2018-05-10T06:40:13.682Z,66.68
2018-05-10T06:41:20.463Z,66.67
2018-05-10T06:42:27.255Z,66.64
2018-05-10T06:43:34.027Z,66.56
2018-05-10T06:44:40.791Z,66.59
2018-05-10T06:45:47.519Z,66.47
2018-05-10T06:46:54.379Z,66.46
2018-05-10T06:48:01.055Z,66.37
2018-05-10T06:49:07.819Z,66.34
2018-05-10T06:50:14.577Z,66.36
2018-05-10T06:51:21.291Z,66.32
2018-05-10T06:52:28.003Z,66.31
2018-05-10T06:53:34.779Z,66.39
2018-05-10T06:54:41.600Z,66.43
2018-05-10T06:55:48.254Z,66.37
2018-05-10T06:56:55.208Z,66.36
2018-05-10T06:58:01.989Z,66.37
2018-05-10T06:59:08.812Z,66.32
2018-05-10T07:00:15.573Z,66.25
2018-05-10T07:01:22.325Z,66.18
2018-05-10T07:02:29.080Z,66.14
2018-05-10T07:03:35.953Z,66.19
2018-05-10T07:04:42.716Z,66.12
2018-05-10T07:05:49.475Z,66.05
2018-05-10T07:06:56.243Z,66.05
2018-05-10T07:08:03.123Z,66.13
2018-05-10T07:09:09.968Z,66.16
2018-05-10T07:10:16.751Z,66.11
2018-05-10T07:11:23.531Z,66.15
2018-05-10T07:12:30.288Z,66.05
2018-05-10T07:13:37.050Z,65.99
2018-05-10T07:14:43.807Z,65.98
2018-05-10T07:15:50.580Z,66.00
2018-05-10T07:16:57.335Z,65.97
2018-05-10T07:18:04.124Z,65.96
2018-05-10T07:19:10.964Z,65.96
2018-05-10T07:20:17.731Z,65.94
2018-05-10T07:21:24.512Z,65.96
2018-05-10T07:22:31.279Z,65.97
2018-05-10T07:23:38.121Z,65.93
2018-05-10T07:24:44.971Z,65.92
2018-05-10T07:25:51.749Z,65.89
2018-05-10T07:26:58.592Z,65.81
2018-05-10T07:28:05.364Z,65.82
2018-05-10T07:29:12.149Z,65.79
2018-05-10T07:30:18.875Z,65.91
2018-05-10T07:31:25.587Z,65.93
2018-05-10T07:32:32.344Z,65.92
2018-05-10T07:33:39.028Z,65.86
2018-05-10T07:34:45.783Z,65.87
2018-05-10T07:35:53.575Z,65.96
2018-05-10T07:36:59.712Z,65.95
2018-05-10T07:38:06.540Z,66.00
2018-05-10T07:39:13.285Z,66.01
2018-05-10T07:40:19.996Z,66.01
2018-05-10T07:41:26.699Z,65.96
2018-05-10T07:42:33.421Z,66.05
2018-05-10T07:43:40.176Z,66.06
2018-05-10T07:44:46.910Z,66.10
2018-05-10T07:45:53.662Z,66.10
2018-05-10T07:47:00.457Z,66.02
2018-05-10T07:48:07.171Z,66.11
2018-05-10T07:49:13.940Z,66.12
2018-05-10T07:50:20.764Z,66.17
2018-05-10T07:51:27.508Z,66.13
2018-05-10T07:52:34.295Z,66.15
2018-05-10T07:53:41.031Z,66.18
2018-05-10T07:54:48.047Z,66.16
2018-05-10T07:55:54.776Z,66.22
2018-05-10T07:57:01.546Z,66.25
2018-05-10T07:58:08.563Z,66.25
2018-05-10T07:59:15.320Z,66.27
2018-05-10T08:00:22.087Z,66.31
2018-05-10T08:01:29.111Z,66.39
2018-05-10T08:02:35.814Z,66.39
2018-05-10T08:03:42.567Z,66.39
2018-05-10T08:04:49.324Z,66.51
2018-05-10T08:05:56.040Z,66.59
2018-05-10T08:07:02.868Z,66.71
2018-05-10T08:08:09.845Z,66.79
2018-05-10T08:09:16.641Z,66.85
2018-05-10T08:10:23.435Z,66.86
2018-05-10T08:11:30.131Z,66.64
2018-05-10T08:12:36.899Z,66.34
2018-05-10T08:13:43.744Z,66.02
2018-05-10T08:14:50.570Z,65.89
2018-05-10T08:15:57.398Z,65.64
2018-05-10T08:17:04.223Z,65.42
2018-05-10T08:18:11.001Z,65.22
2018-05-10T08:19:17.839Z,64.96
2018-05-10T08:20:25.992Z,64.66
2018-05-10T08:21:31.351Z,64.54
2018-05-10T08:22:38.199Z,64.26
2018-05-10T08:23:45.000Z,64.01
2018-05-10T08:24:52.112Z,63.88
2018-05-10T08:25:58.934Z,63.67
2018-05-10T08:27:05.723Z,63.57
2018-05-10T08:28:14.545Z,63.43
2018-05-10T08:29:19.400Z,63.17
2018-05-10T08:30:26.131Z,62.96
2018-05-10T08:31:32.966Z,62.85
2018-05-10T08:32:39.939Z,62.77
2018-05-10T08:33:46.767Z,62.67
2018-05-10T08:34:56.937Z,62.49
2018-05-10T08:36:00.373Z,62.34
2018-05-10T08:37:07.243Z,62.25
2018-05-10T08:38:14.189Z,62.20
2018-05-10T08:39:20.972Z,62.17
2018-05-10T08:40:28.068Z,62.12
2018-05-10T08:41:34.536Z,62.17
2018-05-10T08:42:41.320Z,61.98
2018-05-10T08:43:48.194Z,62.01
2018-05-10T08:44:55.253Z,62.02
2018-05-10T08:46:02.078Z,61.99
2018-05-10T08:47:09.041Z,61.95
2018-05-10T08:48:15.831Z,61.78
2018-05-10T08:49:22.777Z,61.80
2018-05-10T08:50:29.367Z,61.68
2018-05-10T08:51:36.298Z,61.74
2018-05-10T08:52:43.341Z,61.72
2018-05-10T08:53:50.350Z,61.79
2018-05-10T08:54:57.185Z,61.72
2018-05-10T08:56:04.052Z,61.71
2018-05-10T08:57:11.055Z,61.82
2018-05-10T08:58:18.048Z,61.84
2018-05-10T08:59:24.994Z,61.93
2018-05-10T09:00:32.062Z,61.96
2018-05-10T09:01:39.063Z,61.95
2018-05-10T09:02:45.975Z,62.02
2018-05-10T09:03:52.938Z,61.96
2018-05-10T09:04:59.952Z,61.99
2018-05-10T09:06:06.786Z,62.03
2018-05-10T09:07:13.754Z,62.17
2018-05-10T09:08:20.862Z,62.16
2018-05-10T09:09:30.259Z,62.14
2018-05-10T09:10:34.967Z,62.35
2018-05-10T09:11:41.893Z,62.38
2018-05-10T09:12:48.715Z,62.42
2018-05-10T09:13:55.671Z,62.58
2018-05-10T09:15:02.499Z,62.63
2018-05-10T09:16:11.504Z,62.71
2018-05-10T09:17:16.688Z,62.82
2018-05-10T09:18:23.612Z,62.94
2018-05-10T09:19:30.455Z,63.02
2018-05-10T09:20:38.635Z,63.04
2018-05-10T09:21:44.282Z,63.04
2018-05-10T09:22:50.965Z,63.11
2018-05-10T09:23:57.764Z,63.25
2018-05-10T09:25:06.322Z,63.41
2018-05-10T09:26:11.343Z,63.44
2018-05-10T09:27:18.374Z,63.31
2018-05-10T09:28:25.224Z,63.28
2018-05-10T09:29:32.504Z,63.22
2018-05-10T09:30:38.938Z,63.28
2018-05-10T09:31:45.838Z,63.25
2018-05-10T09:32:52.888Z,63.22
2018-05-10T09:33:59.884Z,63.19
2018-05-10T09:35:11.908Z,63.23
2018-05-10T09:36:21.943Z,63.07
2018-05-10T09:37:20.438Z,63.03
2018-05-10T09:40:07.322Z,63.02
2018-05-10T09:42:19.988Z,63.01
2018-05-10T09:43:27.225Z,62.88
2018-05-10T09:45:45.218Z,62.59
2018-05-10T09:46:47.941Z,62.64
2018-05-10T09:47:58.021Z,62.60
2018-05-10T09:50:16.393Z,62.11
2018-05-10T09:51:23.360Z,61.96
2018-05-10T09:52:30.179Z,62.06
2018-05-10T09:53:37.457Z,61.96
2018-05-10T09:54:44.031Z,61.67
2018-05-10T09:55:50.951Z,61.56
2018-05-10T09:56:58.919Z,61.59
2018-05-10T09:58:06.161Z,61.61
2018-05-10T09:59:12.062Z,61.57
2018-05-10T10:00:20.262Z,61.57
2018-05-10T10:01:25.725Z,61.52
2018-05-10T10:02:32.578Z,61.53
2018-05-10T10:03:39.375Z,61.56
2018-05-10T10:04:49.069Z,61.44
2018-05-10T10:05:53.510Z,61.39
2018-05-10T10:07:00.381Z,61.34
2018-05-10T10:08:09.581Z,61.33
2018-05-10T10:09:14.168Z,61.09
2018-05-10T10:10:21.027Z,60.92
2018-05-10T10:12:35.085Z,60.76
2018-05-10T10:13:45.359Z,60.87
2018-05-10T10:14:48.474Z,60.81
2018-05-10T10:15:56.132Z,60.72
2018-05-10T10:17:02.834Z,60.64
2018-05-10T10:18:09.662Z,60.54
2018-05-10T10:20:23.404Z,59.99
2018-05-10T10:21:30.242Z,59.91
2018-05-10T10:22:37.098Z,59.92
2018-05-10T10:23:43.851Z,59.95
2018-05-10T10:24:50.779Z,59.76
2018-05-10T10:25:57.860Z,59.79
2018-05-10T10:27:08.402Z,59.69
2018-05-10T10:29:18.796Z,59.75
2018-05-10T10:30:25.632Z,59.75
2018-05-10T10:31:32.651Z,59.54
2018-05-10T10:32:39.655Z,59.56
2018-05-10T10:33:46.745Z,59.62
2018-05-10T10:34:53.599Z,59.69
2018-05-10T10:36:00.404Z,59.63
2018-05-10T10:37:07.364Z,59.75
2018-05-10T10:38:14.253Z,59.69
2018-05-10T10:39:21.010Z,59.75
2018-05-10T10:40:27.861Z,59.50
2018-05-10T10:41:35.015Z,59.51
2018-05-10T10:42:41.331Z,59.60
2018-05-10T10:43:48.461Z,59.68
2018-05-10T10:44:56.267Z,59.72
2018-05-10T10:46:05.156Z,59.60
2018-05-10T10:48:26.399Z,59.59
2018-05-10T10:49:23.188Z,59.77
2018-05-10T10:50:29.943Z,59.54
2018-05-10T10:51:36.697Z,59.55
2018-05-10T10:52:43.458Z,59.77
2018-05-10T10:53:50.572Z,59.79
2018-05-10T10:54:58.493Z,59.70
2018-05-10T10:56:04.248Z,59.87
2018-05-10T10:57:11.100Z,59.97
2018-05-10T10:59:26.311Z,60.17
2018-05-10T11:00:31.965Z,60.18
2018-05-10T11:01:38.808Z,60.32
2018-05-10T11:02:45.662Z,60.17
2018-05-10T11:03:54.223Z,60.21
2018-05-10T11:04:59.805Z,60.42
2018-05-10T11:06:06.919Z,60.47
2018-05-10T11:07:13.708Z,60.41
2018-05-10T11:08:20.448Z,60.51
2018-05-10T11:09:27.273Z,60.37
2018-05-10T11:10:34.080Z,60.53
2018-05-10T11:11:41.256Z,60.62
2018-05-10T11:12:48.132Z,60.73
2018-05-10T11:13:54.687Z,60.88
2018-05-10T11:15:01.728Z,60.89
2018-05-10T11:16:08.441Z,60.98
2018-05-10T11:17:15.179Z,60.86
2018-05-10T11:18:21.928Z,61.07
2018-05-10T11:19:28.695Z,61.05
2018-05-10T11:20:36.025Z,61.29
2018-05-10T11:21:42.734Z,61.23
2018-05-10T11:22:49.302Z,61.16
2018-05-10T11:23:56.038Z,61.29
2018-05-10T11:25:02.811Z,61.49
2018-05-10T11:26:09.590Z,61.67
2018-05-10T11:27:16.386Z,61.79
2018-05-10T11:28:23.123Z,61.82
2018-05-10T11:29:29.906Z,61.94
2018-05-10T11:30:36.697Z,62.12
2018-05-10T11:31:43.431Z,62.22
2018-05-10T11:32:50.240Z,62.29
2018-05-10T11:33:56.920Z,62.46
2018-05-10T11:35:03.682Z,62.47
2018-05-10T11:36:10.481Z,62.46
2018-05-10T11:37:17.196Z,62.58
2018-05-10T11:38:23.919Z,62.80
2018-05-10T11:39:30.695Z,62.89
2018-05-10T11:40:37.463Z,62.83
2018-05-10T11:41:44.235Z,62.77
2018-05-10T11:42:51.027Z,62.95
2018-05-10T11:43:57.741Z,62.94
2018-05-10T11:45:04.586Z,63.14
2018-05-10T11:46:11.359Z,63.25
2018-05-10T11:47:18.066Z,63.21
2018-05-10T11:48:24.804Z,63.18
2018-05-10T11:49:31.615Z,63.24
2018-05-10T11:50:38.384Z,63.43
2018-05-10T11:51:45.117Z,63.29
2018-05-10T11:52:51.891Z,63.46
2018-05-10T11:53:58.915Z,63.34
2018-05-10T11:55:05.703Z,63.30
2018-05-10T11:56:12.483Z,63.28
2018-05-10T11:57:19.516Z,63.25
2018-05-10T11:58:26.381Z,63.41
2018-05-10T11:59:33.175Z,63.42
2018-05-10T12:00:40.028Z,63.35
2018-05-10T12:01:47.166Z,63.45
2018-05-10T12:02:54.043Z,63.40
2018-05-10T12:04:01.012Z,63.11
2018-05-10T12:05:07.843Z,63.13
2018-05-10T12:06:14.710Z,63.17
2018-05-10T12:07:21.726Z,63.23
2018-05-10T12:08:28.544Z,62.88
2018-05-10T12:09:35.213Z,62.93
2018-05-10T12:10:42.041Z,63.16
2018-05-10T12:11:48.738Z,63.13
2018-05-10T12:12:55.501Z,62.84
2018-05-10T12:14:02.240Z,63.03
2018-05-10T12:15:09.079Z,62.77
2018-05-10T12:16:15.876Z,62.78
2018-05-10T12:17:22.717Z,62.83
2018-05-10T12:18:29.489Z,63.02
2018-05-10T12:19:36.253Z,62.76
2018-05-10T12:20:43.041Z,62.85
2018-05-10T12:21:49.840Z,62.84
2018-05-10T12:22:56.844Z,62.59
2018-05-10T12:24:03.703Z,62.58
2018-05-10T12:25:10.550Z,62.56
2018-05-10T12:26:17.347Z,62.60
2018-05-10T12:27:24.143Z,62.61
2018-05-10T12:28:30.899Z,62.59
2018-05-10T12:29:37.664Z,62.76
2018-05-10T12:30:44.409Z,62.76
2018-05-10T12:31:51.271Z,62.39
2018-05-10T12:32:58.180Z,62.44
2018-05-10T12:34:05.067Z,62.57
2018-05-10T12:35:11.883Z,62.36
2018-05-10T12:36:18.724Z,62.12
2018-05-10T12:37:25.826Z,62.00
2018-05-10T12:38:32.539Z,61.75
2018-05-10T12:39:39.474Z,61.75
2018-05-10T12:40:46.251Z,61.77
2018-05-10T12:41:52.994Z,61.91
2018-05-10T12:42:59.931Z,61.60
2018-05-10T12:44:06.587Z,61.45
2018-05-10T12:45:13.382Z,61.60
2018-05-10T12:46:20.211Z,61.66
2018-05-10T12:47:27.279Z,61.72
2018-05-10T12:48:34.325Z,61.64
2018-05-10T12:49:41.242Z,61.69
2018-05-10T12:50:50.295Z,61.80
2018-05-10T12:51:55.297Z,61.46
2018-05-10T12:53:02.356Z,61.44
2018-05-10T12:54:09.540Z,61.15
2018-05-10T12:55:16.179Z,61.09
2018-05-10T12:56:22.952Z,60.94
2018-05-10T12:57:29.774Z,60.89
2018-05-10T12:58:36.672Z,60.73
2018-05-10T12:59:43.468Z,60.76
2018-05-10T13:00:50.409Z,60.34
2018-05-10T13:01:57.451Z,60.24
2018-05-10T13:03:04.380Z,60.25
2018-05-10T13:04:11.372Z,60.13
2018-05-10T13:05:19.419Z,60.25
2018-05-10T13:06:25.252Z,59.91
2018-05-10T13:07:32.008Z,59.98
2018-05-10T13:08:38.762Z,60.04
2018-05-10T13:09:45.494Z,59.69
2018-05-10T13:10:52.277Z,59.67
2018-05-10T13:11:59.048Z,59.92
2018-05-10T13:13:05.736Z,59.51
2018-05-10T13:14:12.500Z,59.41
2018-05-10T13:15:19.203Z,59.32
2018-05-10T13:16:26.162Z,59.22
2018-05-10T13:17:32.887Z,58.98
2018-05-10T13:18:39.636Z,58.76
2018-05-10T13:19:46.398Z,58.81
2018-05-10T13:20:53.315Z,58.77
2018-05-10T13:22:00.333Z,58.67
2018-05-10T13:23:06.898Z,58.40
2018-05-10T13:24:13.754Z,58.33
2018-05-10T13:25:20.497Z,58.36
2018-05-10T13:26:27.360Z,58.26
2018-05-10T13:27:34.350Z,58.24
2018-05-10T13:28:41.152Z,58.05
2018-05-10T13:29:48.067Z,57.89
2018-05-10T13:30:54.760Z,57.80
2018-05-10T13:32:01.500Z,57.85
2018-05-10T13:33:08.246Z,57.62
2018-05-10T13:34:14.949Z,57.67
2018-05-10T13:35:21.725Z,57.75
2018-05-10T13:36:28.464Z,57.64
2018-05-10T13:37:35.215Z,57.30
2018-05-10T13:38:42.012Z,57.22
2018-05-10T13:39:48.892Z,57.13
2018-05-10T13:40:55.771Z,57.03
2018-05-10T13:42:02.631Z,56.75
2018-05-10T13:43:09.471Z,56.90
2018-05-10T13:44:16.627Z,57.01
2018-05-10T13:45:23.008Z,56.90
2018-05-10T13:46:29.833Z,56.59
2018-05-10T13:47:36.930Z,56.60
2018-05-10T13:48:43.465Z,56.91
2018-05-10T13:49:50.391Z,56.91
2018-05-10T13:50:57.229Z,56.77
2018-05-10T13:52:04.055Z,56.72
2018-05-10T13:53:10.905Z,56.67
2018-05-10T13:54:17.849Z,56.69
2018-05-10T13:55:24.767Z,56.80
2018-05-10T13:56:31.563Z,56.66
2018-05-10T13:57:38.370Z,56.57
2018-05-10T13:58:45.131Z,56.67
2018-05-10T13:59:52.166Z,56.16
2018-05-10T14:00:59.129Z,56.46
2018-05-10T14:02:06.174Z,56.46
2018-05-10T14:03:13.311Z,56.12
2018-05-10T14:04:20.179Z,56.35
2018-05-10T14:05:27.045Z,56.39
2018-05-10T14:06:33.942Z,56.37
2018-05-10T14:07:40.747Z,56.13
2018-05-10T14:08:47.586Z,56.02
2018-05-10T14:09:54.420Z,56.09
2018-05-10T14:11:01.380Z,56.19
2018-05-10T14:12:08.566Z,56.06
2018-05-10T14:13:15.228Z,56.10
2018-05-10T14:14:21.908Z,56.24
2018-05-10T14:15:28.857Z,56.21
2018-05-10T14:16:35.667Z,56.17
2018-05-10T14:17:42.560Z,56.12
2018-05-10T14:18:49.395Z,56.16
2018-05-10T14:19:56.313Z,56.16
2018-05-10T14:21:03.084Z,56.00
2018-05-10T14:22:09.874Z,56.08
2018-05-10T14:23:16.666Z,55.87
2018-05-10T14:24:23.452Z,55.95
2018-05-10T14:25:30.349Z,56.07
2018-05-10T14:26:37.272Z,55.82
2018-05-10T14:27:44.727Z,55.44
2018-05-10T14:28:51.562Z,55.42
2018-05-10T14:29:58.297Z,55.12
2018-05-10T14:31:05.074Z,55.01
2018-05-10T14:32:11.863Z,55.08
2018-05-10T14:33:18.631Z,54.78
2018-05-10T14:34:25.434Z,54.62
2018-05-10T14:35:32.256Z,54.69
2018-05-10T14:36:39.064Z,54.77
2018-05-10T14:37:45.932Z,54.67
2018-05-10T14:38:52.838Z,54.43
2018-05-10T14:39:59.572Z,54.56
2018-05-10T14:41:06.320Z,54.39
2018-05-10T14:42:19.711Z,54.23
2018-05-10T14:43:20.190Z,54.07
2018-05-10T14:44:26.952Z,54.01
2018-05-10T14:45:33.723Z,53.91
2018-05-10T14:46:40.473Z,54.06
2018-05-10T14:47:47.187Z,54.11
2018-05-10T14:48:53.980Z,53.99
2018-05-10T14:50:00.739Z,53.94
2018-05-10T14:51:07.582Z,53.92
2018-05-10T14:52:14.366Z,53.90
2018-05-10T14:53:21.100Z,54.07
2018-05-10T14:54:27.918Z,54.38
2018-05-10T14:55:34.779Z,54.23
2018-05-10T14:56:41.629Z,54.16
2018-05-10T14:57:48.529Z,54.19
2018-05-10T14:58:55.408Z,54.08
2018-05-10T15:00:02.265Z,53.92
2018-05-10T15:01:09.106Z,53.97
2018-05-10T15:02:15.981Z,53.74
2018-05-10T15:03:22.815Z,53.57
2018-05-10T15:04:29.576Z,53.54
2018-05-10T15:05:36.383Z,53.49
2018-05-10T15:06:43.108Z,53.54
2018-05-10T15:07:49.883Z,53.27
2018-05-10T15:08:56.651Z,53.11
2018-05-10T15:10:03.575Z,53.07
2018-05-10T15:11:10.338Z,53.05
2018-05-10T15:12:17.128Z,52.99
2018-05-10T15:13:23.884Z,52.94
2018-05-10T15:14:30.627Z,52.80
2018-05-10T15:15:37.386Z,52.79
2018-05-10T15:16:44.131Z,52.72
2018-05-10T15:17:50.887Z,52.83
2018-05-10T15:18:57.621Z,52.83